AAL457 KDFW-KOKC
Flight info
| Callsign | AAL457 |
|---|---|
| Flight time | 0h 29m |
| Altitude | 20000 |
| Route | BLECO8 ZEMMA TSDEL3 |
| Aircraft | B738/M-SDE2E3FGHIRWXY/LB1 |
Departure
| Time | 2026-05-06 01:47 |
|---|---|
| Airport | Dallas Fort Worth International Airport (KDFW) |
Arrival
| Time | 2026-05-06 02:16 |
|---|---|
| Airport | OKC Will Rogers World Airport (KOKC) |
| Time | Latitude | Longitude | Altitude | Speed | Heading |
|---|---|---|---|---|---|
| 2026-05-06 01:26 | 32.90001 | -97.04420 | 598 ft | 0 kts | 180° |
| 2026-05-06 01:36 | 32.90010 | -97.04420 | 598 ft | 2 kts | 180° |
| 2026-05-06 01:36 | 32.90025 | -97.04420 | 598 ft | 2 kts | 180° |
| 2026-05-06 01:36 | 32.90040 | -97.04419 | 598 ft | 2 kts | 180° |
| 2026-05-06 01:37 | 32.90055 | -97.04419 | 598 ft | 2 kts | 180° |
| 2026-05-06 01:37 | 32.90070 | -97.04418 | 598 ft | 2 kts | 205° |
| 2026-05-06 01:37 | 32.90080 | -97.04406 | 597 ft | 2 kts | 250° |
| 2026-05-06 01:37 | 32.90082 | -97.04397 | 597 ft | 0 kts | 275° |
| 2026-05-06 01:38 | 32.90081 | -97.04390 | 597 ft | 0 kts | 271° |
| 2026-05-06 01:40 | 32.90081 | -97.04391 | 597 ft | 0 kts | 271° |
| 2026-05-06 01:40 | 32.90081 | -97.04397 | 597 ft | 1 kts | 271° |
| 2026-05-06 01:41 | 32.90082 | -97.04417 | 598 ft | 2 kts | 271° |
| 2026-05-06 01:41 | 32.90082 | -97.04438 | 598 ft | 2 kts | 271° |
| 2026-05-06 01:41 | 32.90082 | -97.04467 | 600 ft | 6 kts | 270° |
| 2026-05-06 01:41 | 32.90082 | -97.04543 | 602 ft | 11 kts | 270° |
| 2026-05-06 01:42 | 32.90083 | -97.04645 | 604 ft | 13 kts | 271° |
| 2026-05-06 01:42 | 32.90100 | -97.04760 | 606 ft | 15 kts | 296° |
| 2026-05-06 01:42 | 32.90100 | -97.04878 | 608 ft | 16 kts | 214° |
| 2026-05-06 01:42 | 32.89978 | -97.04886 | 608 ft | 18 kts | 179° |
| 2026-05-06 01:43 | 32.89849 | -97.04887 | 605 ft | 20 kts | 181° |
| 2026-05-06 01:43 | 32.89685 | -97.04888 | 602 ft | 26 kts | 179° |
| 2026-05-06 01:43 | 32.89484 | -97.04889 | 597 ft | 29 kts | 181° |
| 2026-05-06 01:43 | 32.89275 | -97.04890 | 592 ft | 30 kts | 180° |
| 2026-05-06 01:44 | 32.89057 | -97.04891 | 586 ft | 31 kts | 179° |
| 2026-05-06 01:44 | 32.88837 | -97.04893 | 582 ft | 31 kts | 181° |
| 2026-05-06 01:44 | 32.88657 | -97.04896 | 578 ft | 14 kts | 180° |
| 2026-05-06 01:44 | 32.88613 | -97.04911 | 578 ft | 4 kts | 243° |
| 2026-05-06 01:45 | 32.88608 | -97.04951 | 577 ft | 7 kts | 267° |
| 2026-05-06 01:45 | 32.88608 | -97.05016 | 577 ft | 7 kts | 270° |
| 2026-05-06 01:45 | 32.88610 | -97.05067 | 578 ft | 5 kts | 285° |
| 2026-05-06 01:45 | 32.88647 | -97.05090 | 578 ft | 9 kts | 357° |
| 2026-05-06 01:46 | 32.88667 | -97.05089 | 579 ft | 0 kts | 1° |
| 2026-05-06 01:46 | 32.88805 | -97.05088 | 581 ft | 55 kts | 0° |
| 2026-05-06 01:46 | 32.89451 | -97.05090 | 599 ft | 125 kts | 360° |
| 2026-05-06 01:46 | 32.90501 | -97.05078 | 801 ft | 165 kts | 1° |
| 2026-05-06 01:47 | 32.91637 | -97.05058 | 1597 ft | 166 kts | 0° |
| 2026-05-06 01:47 | 32.92802 | -97.05045 | 2285 ft | 174 kts | 358° |
| 2026-05-06 01:47 | 32.94030 | -97.05080 | 2805 ft | 184 kts | 356° |
| 2026-05-06 01:47 | 32.95384 | -97.05157 | 3157 ft | 205 kts | 355° |
| 2026-05-06 01:48 | 32.96844 | -97.05212 | 3645 ft | 219 kts | 357° |
| 2026-05-06 01:48 | 32.98448 | -97.05231 | 4053 ft | 240 kts | 358° |
| 2026-05-06 01:48 | 33.00191 | -97.05246 | 4558 ft | 259 kts | 357° |
| 2026-05-06 01:48 | 33.02018 | -97.05266 | 5254 ft | 268 kts | 357° |
| 2026-05-06 01:49 | 33.03912 | -97.05289 | 5980 ft | 277 kts | 357° |
| 2026-05-06 01:49 | 33.05871 | -97.05314 | 6762 ft | 282 kts | 356° |
| 2026-05-06 01:49 | 33.07804 | -97.05425 | 7577 ft | 283 kts | 351° |
| 2026-05-06 01:49 | 33.09819 | -97.05682 | 8177 ft | 295 kts | 348° |
| 2026-05-06 01:50 | 33.11859 | -97.06000 | 8991 ft | 297 kts | 347° |
| 2026-05-06 01:50 | 33.13888 | -97.06323 | 9773 ft | 300 kts | 346° |
| 2026-05-06 01:50 | 33.15970 | -97.06646 | 10465 ft | 306 kts | 346° |
| 2026-05-06 01:50 | 33.18129 | -97.06975 | 10907 ft | 322 kts | 346° |
| 2026-05-06 01:51 | 33.20421 | -97.07320 | 11329 ft | 338 kts | 345° |
| 2026-05-06 01:51 | 33.22817 | -97.07675 | 11724 ft | 354 kts | 345° |
| 2026-05-06 01:51 | 33.25312 | -97.08046 | 12061 ft | 370 kts | 346° |
| 2026-05-06 01:51 | 33.27938 | -97.08434 | 12422 ft | 386 kts | 346° |
| 2026-05-06 01:52 | 33.30617 | -97.08828 | 12859 ft | 397 kts | 345° |
| 2026-05-06 01:52 | 33.33398 | -97.09229 | 13500 ft | 402 kts | 345° |
| 2026-05-06 01:52 | 33.36161 | -97.09628 | 14185 ft | 406 kts | 345° |
| 2026-05-06 01:52 | 33.38993 | -97.10036 | 14892 ft | 409 kts | 345° |
| 2026-05-06 01:53 | 33.41810 | -97.10435 | 15520 ft | 415 kts | 346° |
| 2026-05-06 01:53 | 33.44708 | -97.10696 | 16257 ft | 421 kts | 350° |
| 2026-05-06 01:53 | 33.47687 | -97.10681 | 16854 ft | 430 kts | 354° |
| 2026-05-06 01:53 | 33.50692 | -97.10432 | 17462 ft | 438 kts | 358° |
| 2026-05-06 01:54 | 33.53759 | -97.10048 | 18127 ft | 442 kts | 359° |
| 2026-05-06 01:54 | 33.56831 | -97.09615 | 18708 ft | 446 kts | 359° |
| 2026-05-06 01:54 | 33.59942 | -97.09169 | 19296 ft | 450 kts | 358° |
| 2026-05-06 01:54 | 33.63052 | -97.08734 | 19776 ft | 452 kts | 358° |
| 2026-05-06 01:55 | 33.66182 | -97.08312 | 19853 ft | 455 kts | 358° |
| 2026-05-06 01:55 | 33.69309 | -97.07893 | 19868 ft | 450 kts | 358° |
| 2026-05-06 01:55 | 33.72477 | -97.07478 | 19867 ft | 453 kts | 358° |
| 2026-05-06 01:55 | 33.75645 | -97.07076 | 19875 ft | 465 kts | 358° |
| 2026-05-06 01:56 | 33.78902 | -97.06669 | 19869 ft | 470 kts | 358° |
| 2026-05-06 01:56 | 33.82137 | -97.06256 | 19867 ft | 468 kts | 358° |
| 2026-05-06 01:56 | 33.85377 | -97.05820 | 20069 ft | 468 kts | 358° |
| 2026-05-06 01:56 | 33.88604 | -97.05304 | 20816 ft | 461 kts | 359° |
| 2026-05-06 01:57 | 33.91690 | -97.04710 | 21875 ft | 447 kts | 0° |
| 2026-05-06 01:57 | 33.94697 | -97.04037 | 22551 ft | 444 kts | 1° |
| 2026-05-06 01:57 | 33.97822 | -97.03280 | 22384 ft | 462 kts | 1° |
| 2026-05-06 01:57 | 34.01023 | -97.02748 | 22043 ft | 471 kts | 356° |
| 2026-05-06 01:58 | 34.04314 | -97.02464 | 21302 ft | 475 kts | 354° |
| 2026-05-06 01:58 | 34.07617 | -97.02296 | 20774 ft | 473 kts | 353° |
| 2026-05-06 01:58 | 34.10864 | -97.02139 | 20327 ft | 467 kts | 354° |
| 2026-05-06 01:58 | 34.14119 | -97.01939 | 20041 ft | 459 kts | 355° |
| 2026-05-06 01:59 | 34.17333 | -97.01668 | 19919 ft | 465 kts | 356° |
| 2026-05-06 01:59 | 34.20556 | -97.01330 | 19889 ft | 466 kts | 357° |
| 2026-05-06 01:59 | 34.23806 | -97.00947 | 19888 ft | 471 kts | 358° |
| 2026-05-06 01:59 | 34.27081 | -97.00537 | 19888 ft | 470 kts | 358° |
| 2026-05-06 02:00 | 34.30355 | -97.00112 | 19890 ft | 469 kts | 358° |
| 2026-05-06 02:00 | 34.33614 | -96.99726 | 19891 ft | 467 kts | 355° |
| 2026-05-06 02:00 | 34.36835 | -96.99635 | 19893 ft | 457 kts | 348° |
| 2026-05-06 02:00 | 34.39849 | -97.00240 | 19897 ft | 429 kts | 334° |
| 2026-05-06 02:01 | 34.42602 | -97.01530 | 19895 ft | 413 kts | 326° |
| 2026-05-06 02:01 | 34.45166 | -97.03062 | 19890 ft | 412 kts | 323° |
| 2026-05-06 02:01 | 34.47692 | -97.04690 | 19674 ft | 408 kts | 322° |
| 2026-05-06 02:01 | 34.50159 | -97.06308 | 19366 ft | 397 kts | 322° |
| 2026-05-06 02:02 | 34.52583 | -97.07902 | 18933 ft | 399 kts | 322° |
| 2026-05-06 02:02 | 34.55055 | -97.09539 | 18341 ft | 409 kts | 322° |
| 2026-05-06 02:02 | 34.57528 | -97.11167 | 17665 ft | 407 kts | 323° |
| 2026-05-06 02:02 | 34.60041 | -97.12802 | 16975 ft | 405 kts | 323° |
| 2026-05-06 02:03 | 34.62489 | -97.14384 | 16303 ft | 402 kts | 324° |
| 2026-05-06 02:03 | 34.64953 | -97.15966 | 15614 ft | 400 kts | 324° |
| 2026-05-06 02:03 | 34.67413 | -97.17542 | 14928 ft | 397 kts | 324° |
| 2026-05-06 02:03 | 34.69845 | -97.19100 | 14256 ft | 394 kts | 325° |
| 2026-05-06 02:04 | 34.72253 | -97.20644 | 13579 ft | 391 kts | 326° |
| 2026-05-06 02:04 | 34.74647 | -97.22182 | 12902 ft | 388 kts | 326° |
| 2026-05-06 02:04 | 34.77027 | -97.23712 | 12227 ft | 385 kts | 326° |
| 2026-05-06 02:04 | 34.79364 | -97.25239 | 11568 ft | 381 kts | 324° |
| 2026-05-06 02:05 | 34.81630 | -97.26854 | 11072 ft | 371 kts | 322° |
| 2026-05-06 02:05 | 34.83779 | -97.28481 | 10817 ft | 356 kts | 321° |
| 2026-05-06 02:05 | 34.85809 | -97.30043 | 10687 ft | 340 kts | 321° |
| 2026-05-06 02:05 | 34.87761 | -97.31541 | 10534 ft | 325 kts | 320° |
| 2026-05-06 02:06 | 34.89630 | -97.32967 | 10416 ft | 311 kts | 320° |
| 2026-05-06 02:06 | 34.91425 | -97.34337 | 10300 ft | 297 kts | 320° |
| 2026-05-06 02:06 | 34.93155 | -97.35663 | 10167 ft | 284 kts | 319° |
| 2026-05-06 02:06 | 34.94805 | -97.36930 | 9897 ft | 278 kts | 319° |
| 2026-05-06 02:07 | 34.96430 | -97.38182 | 9511 ft | 276 kts | 319° |
| 2026-05-06 02:07 | 34.98046 | -97.39424 | 9172 ft | 273 kts | 320° |
| 2026-05-06 02:07 | 34.99653 | -97.40652 | 8838 ft | 270 kts | 320° |
| 2026-05-06 02:07 | 35.01222 | -97.41848 | 8501 ft | 267 kts | 320° |
| 2026-05-06 02:08 | 35.02785 | -97.43041 | 8170 ft | 263 kts | 321° |
| 2026-05-06 02:08 | 35.04333 | -97.44223 | 7847 ft | 260 kts | 321° |
| 2026-05-06 02:08 | 35.05856 | -97.45386 | 7524 ft | 257 kts | 321° |
| 2026-05-06 02:08 | 35.07350 | -97.46529 | 7211 ft | 254 kts | 321° |
| 2026-05-06 02:09 | 35.08816 | -97.47722 | 6892 ft | 249 kts | 319° |
| 2026-05-06 02:09 | 35.10227 | -97.48969 | 6582 ft | 246 kts | 317° |
| 2026-05-06 02:09 | 35.11560 | -97.50216 | 6278 ft | 242 kts | 316° |
| 2026-05-06 02:09 | 35.12891 | -97.51503 | 5967 ft | 240 kts | 317° |
| 2026-05-06 02:10 | 35.14188 | -97.52755 | 5699 ft | 236 kts | 319° |
| 2026-05-06 02:10 | 35.15462 | -97.53971 | 5526 ft | 232 kts | 320° |
| 2026-05-06 02:10 | 35.16709 | -97.55154 | 5334 ft | 220 kts | 321° |
| 2026-05-06 02:10 | 35.17894 | -97.56273 | 5150 ft | 209 kts | 321° |
| 2026-05-06 02:11 | 35.19030 | -97.57352 | 4929 ft | 201 kts | 322° |
| 2026-05-06 02:11 | 35.20112 | -97.58383 | 4710 ft | 194 kts | 323° |
| 2026-05-06 02:11 | 35.21162 | -97.59383 | 4523 ft | 185 kts | 324° |
| 2026-05-06 02:11 | 35.22221 | -97.60203 | 4372 ft | 171 kts | 345° |
| 2026-05-06 02:12 | 35.23366 | -97.60354 | 4171 ft | 166 kts | 359° |
| 2026-05-06 02:12 | 35.24506 | -97.60420 | 3935 ft | 162 kts | 359° |
| 2026-05-06 02:12 | 35.25621 | -97.60482 | 3711 ft | 160 kts | 2° |
| 2026-05-06 02:12 | 35.26743 | -97.60506 | 3490 ft | 156 kts | 3° |
| 2026-05-06 02:13 | 35.27777 | -97.60519 | 3270 ft | 142 kts | 5° |
| 2026-05-06 02:13 | 35.28717 | -97.60532 | 3105 ft | 134 kts | 5° |
| 2026-05-06 02:13 | 35.29672 | -97.60535 | 2904 ft | 137 kts | 5° |
| 2026-05-06 02:13 | 35.30626 | -97.60541 | 2726 ft | 140 kts | 4° |
| 2026-05-06 02:14 | 35.31614 | -97.60549 | 2529 ft | 139 kts | 4° |
| 2026-05-06 02:14 | 35.32578 | -97.60555 | 2344 ft | 140 kts | 2° |
| 2026-05-06 02:14 | 35.33566 | -97.60574 | 2147 ft | 140 kts | 2° |
| 2026-05-06 02:14 | 35.34541 | -97.60560 | 1925 ft | 141 kts | 2° |
| 2026-05-06 02:15 | 35.35509 | -97.60571 | 1738 ft | 139 kts | 1° |
| 2026-05-06 02:15 | 35.36505 | -97.60569 | 1579 ft | 143 kts | 1° |
| 2026-05-06 02:15 | 35.37486 | -97.60570 | 1383 ft | 140 kts | 2° |
| 2026-05-06 02:15 | 35.38440 | -97.60572 | 1270 ft | 127 kts | 1° |
| 2026-05-06 02:16 | 35.39106 | -97.60571 | 1278 ft | 65 kts | 360° |
| 2026-05-06 02:16 | 35.39485 | -97.60573 | 1281 ft | 48 kts | 0° |
| 2026-05-06 02:16 | 35.39749 | -97.60574 | 1283 ft | 20 kts | 360° |
| 2026-05-06 02:16 | 35.39872 | -97.60557 | 1283 ft | 16 kts | 28° |
| 2026-05-06 02:17 | 35.39920 | -97.60449 | 1285 ft | 13 kts | 91° |
| 2026-05-06 02:17 | 35.39856 | -97.60402 | 1286 ft | 12 kts | 180° |
| 2026-05-06 02:17 | 35.39758 | -97.60403 | 1286 ft | 14 kts | 180° |
| 2026-05-06 02:17 | 35.39702 | -97.60397 | 1286 ft | 7 kts | 176° |
| 2026-05-06 02:18 | 35.39645 | -97.60368 | 1287 ft | 8 kts | 136° |
| 2026-05-06 02:18 | 35.39590 | -97.60299 | 1288 ft | 14 kts | 134° |
| 2026-05-06 02:18 | 35.39546 | -97.60226 | 1290 ft | 7 kts | 90° |
| 2026-05-06 02:18 | 35.39565 | -97.60175 | 1291 ft | 7 kts | 64° |
| 2026-05-06 02:19 | 35.39579 | -97.60110 | 1292 ft | 7 kts | 91° |
| 2026-05-06 02:19 | 35.39570 | -97.60065 | 1293 ft | 4 kts | 116° |
| 2026-05-06 02:19 | 35.39552 | -97.60023 | 1294 ft | 5 kts | 118° |
| 2026-05-06 02:19 | 35.39539 | -97.59993 | 1294 ft | 1 kts | 118° |
| 2026-05-06 02:20 | 35.39537 | -97.59989 | 1294 ft | 0 kts | 117° |